Terminal Aerodrome Forecast
Issued by NWS

Home | Current Version | Previous Version | Text Only | Print | Product List | Glossary Off
Versions: 1 2 3 4 5 6 7 8 9 10 11 12 13 14 15 16 17 18 19 20 21 22 23 24 25 26 27 28 29 30 31 32 33 34 35
407 FTUS41 KBOX 230207 AAA TAFACK TAF AMD KACK 230207Z 2302/2324 17005KT 3/4SM BR SCT250 FM230900 15004KT 1/2SM FG OVC003 FM231000 14005KT 3/4SM BR OVC003 FM231500 17009KT 6SM BR BKN100 FM231900 16010KT P6SM BKN035 FM232100 17011KT P6SM BKN030=

USA.gov is the U.S. government's official web portal to all federal, state and local government web resources and services.